createdAt,value
2018-07-28T00:00:31.738Z,7.67
2018-07-28T00:05:24.378Z,8.30
2018-07-28T00:10:16.979Z,8.33
2018-07-28T00:15:10.963Z,8.17
2018-07-28T00:20:04.801Z,8.40
2018-07-28T00:24:57.441Z,8.30
2018-07-28T00:29:49.992Z,9.13
2018-07-28T00:34:42.581Z,8.40
2018-07-28T00:39:35.219Z,8.70
2018-07-28T00:44:27.764Z,8.63
2018-07-28T00:49:20.334Z,8.43
2018-07-28T00:54:12.962Z,8.70
2018-07-28T00:59:05.571Z,7.90
2018-07-28T01:03:58.246Z,8.27
2018-07-28T01:08:51.019Z,8.40
2018-07-28T01:13:43.626Z,8.03
2018-07-28T01:18:36.318Z,8.60
2018-07-28T01:23:28.944Z,7.73
2018-07-28T01:28:21.640Z,8.50
2018-07-28T01:33:14.210Z,8.30
2018-07-28T01:38:06.826Z,8.77
2018-07-28T01:42:59.452Z,8.90
2018-07-28T01:47:52.043Z,8.57
2018-07-28T01:52:44.598Z,7.77
2018-07-28T01:57:37.231Z,9.07
2018-07-28T02:02:29.760Z,8.57
2018-07-28T02:07:22.329Z,8.27
2018-07-28T02:12:14.845Z,8.53
2018-07-28T02:17:07.443Z,8.40
2018-07-28T02:22:01.387Z,8.77
2018-07-28T02:26:53.942Z,8.50
2018-07-28T02:31:46.497Z,8.47
2018-07-28T02:36:39.159Z,8.13
2018-07-28T02:41:31.791Z,8.97
2018-07-28T02:46:24.503Z,8.83
2018-07-28T02:51:17.058Z,9.37
2018-07-28T02:56:09.638Z,8.97
2018-07-28T03:01:02.274Z,9.17
2018-07-28T03:05:55.197Z,8.53
2018-07-28T03:10:47.808Z,9.33
2018-07-28T03:15:40.460Z,8.67
2018-07-28T03:20:33.143Z,9.30
2018-07-28T03:25:25.680Z,8.63
2018-07-28T03:30:18.334Z,9.37
2018-07-28T03:35:10.957Z,9.50
2018-07-28T03:40:03.887Z,9.57
2018-07-28T03:44:56.485Z,9.10
2018-07-28T03:49:49.079Z,9.53
2018-07-28T03:54:41.695Z,9.53
2018-07-28T03:59:34.296Z,8.97
2018-07-28T04:04:26.951Z,9.73
2018-07-28T04:09:19.543Z,9.83
2018-07-28T04:14:12.145Z,9.27
2018-07-28T04:19:05.136Z,9.83
2018-07-28T04:23:57.755Z,9.77
2018-07-28T04:28:50.350Z,8.97
2018-07-28T04:33:42.930Z,9.40
2018-07-28T04:38:35.535Z,9.60
2018-07-28T04:43:28.152Z,10.70
2018-07-28T04:48:20.686Z,9.87
2018-07-28T04:53:13.257Z,9.40
2018-07-28T04:58:06.141Z,10.23
2018-07-28T05:02:58.829Z,9.03
2018-07-28T05:07:51.486Z,10.27
2018-07-28T05:12:44.075Z,9.30
2018-07-28T05:17:36.674Z,10.13
2018-07-28T05:22:29.342Z,10.07
2018-07-28T05:27:21.868Z,9.93
2018-07-28T05:32:14.407Z,10.10
2018-07-28T05:37:07.110Z,9.97
2018-07-28T05:41:59.634Z,9.87
2018-07-28T05:46:52.255Z,8.93
2018-07-28T05:51:44.915Z,9.43
2018-07-28T05:56:37.462Z,9.60
2018-07-28T06:01:30.135Z,9.37
2018-07-28T06:06:22.815Z,9.37
2018-07-28T06:11:15.460Z,9.67
2018-07-28T06:16:08.069Z,11.97
2018-07-28T06:21:00.629Z,10.63
2018-07-28T06:25:53.505Z,10.93
2018-07-28T06:30:46.273Z,10.30
2018-07-28T06:35:38.835Z,11.00
2018-07-28T06:40:31.519Z,10.47
2018-07-28T06:45:24.244Z,9.97
2018-07-28T06:50:16.888Z,9.50
2018-07-28T06:55:09.524Z,9.57
2018-07-28T07:00:02.309Z,9.23
2018-07-28T07:04:55.392Z,9.00
2018-07-28T07:09:47.977Z,8.97
2018-07-28T07:14:40.747Z,9.17
2018-07-28T07:19:33.451Z,8.73
2018-07-28T07:24:27.037Z,9.00
2018-07-28T07:29:19.570Z,8.00
2018-07-28T07:34:12.238Z,7.27
2018-07-28T07:39:06.639Z,7.87
2018-07-28T07:43:59.216Z,7.50
2018-07-28T07:48:51.936Z,7.57
2018-07-28T07:53:44.658Z,7.57
2018-07-28T07:58:37.214Z,7.33
2018-07-28T08:03:29.822Z,7.10
2018-07-28T08:08:22.548Z,7.37
2018-07-28T08:13:15.139Z,7.40
2018-07-28T08:18:07.749Z,7.87
2018-07-28T08:23:00.310Z,7.70
2018-07-28T08:27:55.566Z,7.40
2018-07-28T08:32:48.228Z,7.40
2018-07-28T08:37:41.015Z,6.93
2018-07-28T08:42:33.633Z,7.23
2018-07-28T08:47:26.254Z,7.10
2018-07-28T08:52:18.796Z,7.13
2018-07-28T08:57:11.557Z,7.73
2018-07-28T09:02:04.150Z,7.97
2018-07-28T09:06:56.825Z,6.97
2018-07-28T09:11:49.467Z,6.80
2018-07-28T09:16:42.361Z,7.47
2018-07-28T09:21:34.925Z,7.80
2018-07-28T09:26:27.599Z,7.37
2018-07-28T09:31:20.173Z,7.63
2018-07-28T09:36:12.773Z,7.60
2018-07-28T09:41:05.343Z,7.53
2018-07-28T09:45:57.991Z,7.87
2018-07-28T09:50:50.607Z,7.87
2018-07-28T09:55:43.272Z,7.73
2018-07-28T10:00:41.583Z,7.90
2018-07-28T10:05:34.177Z,7.80
2018-07-28T10:10:26.706Z,7.53
2018-07-28T10:15:19.422Z,8.23
2018-07-28T10:20:12.003Z,7.40
2018-07-28T10:25:04.683Z,7.83
2018-07-28T10:29:57.243Z,7.87
2018-07-28T10:34:50.029Z,7.93
2018-07-28T10:39:42.530Z,7.40
2018-07-28T10:44:35.230Z,6.93
2018-07-28T10:49:27.835Z,6.90
2018-07-28T10:54:20.386Z,6.63
2018-07-28T10:59:13.114Z,6.47
2018-07-28T11:04:05.980Z,6.60
2018-07-28T11:08:58.591Z,5.77
2018-07-28T11:13:51.687Z,6.13
2018-07-28T11:18:44.333Z,6.30
2018-07-28T11:23:54.447Z,6.57
2018-07-28T11:28:47.010Z,6.70
2018-07-28T11:34:55.493Z,6.57
2018-07-28T11:40:05.830Z,6.60
2018-07-28T11:45:10.556Z,7.23
2018-07-28T11:50:03.233Z,7.10
2018-07-28T11:54:55.810Z,6.80
2018-07-28T11:59:48.583Z,6.37
2018-07-28T12:04:41.167Z,6.90
2018-07-28T12:09:33.766Z,6.87
2018-07-28T12:14:26.359Z,6.17
2018-07-28T12:19:19.005Z,6.80
2018-07-28T12:24:11.705Z,6.30
2018-07-28T12:29:04.295Z,6.60
2018-07-28T12:33:56.980Z,6.20
2018-07-28T12:38:49.533Z,6.07
2018-07-28T12:43:42.085Z,5.80
2018-07-28T12:48:34.658Z,6.17
2018-07-28T12:53:27.272Z,5.90
2018-07-28T12:58:19.885Z,6.27
2018-07-28T13:03:12.514Z,6.13
2018-07-28T13:08:05.517Z,6.27
2018-07-28T13:12:58.035Z,6.57
2018-07-28T13:17:50.688Z,7.10
2018-07-28T13:22:44.101Z,6.80
2018-07-28T13:27:36.675Z,6.60
2018-07-28T13:32:29.191Z,6.00
2018-07-28T13:37:21.721Z,6.27
2018-07-28T13:42:14.402Z,6.70
2018-07-28T13:47:07.302Z,6.53
2018-07-28T13:51:59.890Z,6.50
2018-07-28T13:56:52.445Z,7.17
2018-07-28T14:01:45.082Z,6.50
2018-07-28T14:06:37.723Z,7.00
2018-07-28T14:11:30.245Z,6.73
2018-07-28T14:16:22.828Z,6.20
2018-07-28T14:21:15.426Z,7.17
2018-07-28T14:26:07.998Z,6.60
2018-07-28T14:31:00.583Z,6.77
2018-07-28T14:35:53.253Z,6.70
2018-07-28T14:40:45.861Z,6.77
2018-07-28T14:45:38.496Z,6.60
2018-07-28T14:50:31.017Z,6.30
2018-07-28T14:55:23.634Z,6.60
2018-07-28T15:00:16.225Z,6.30
2018-07-28T15:05:08.802Z,6.23
2018-07-28T15:10:01.426Z,6.70
2018-07-28T15:14:53.994Z,6.57
2018-07-28T15:19:46.559Z,7.10
2018-07-28T15:24:39.193Z,7.13
2018-07-28T15:29:31.765Z,6.70
2018-07-28T15:34:24.393Z,6.70
2018-07-28T15:39:16.996Z,6.63
2018-07-28T15:44:09.604Z,7.00
2018-07-28T15:49:02.268Z,6.93
2018-07-28T15:53:54.830Z,6.90
2018-07-28T15:58:47.415Z,6.40
2018-07-28T16:03:39.989Z,6.73
2018-07-28T16:08:32.703Z,6.80
2018-07-28T16:13:25.321Z,7.30
2018-07-28T16:18:17.890Z,6.60
2018-07-28T16:23:10.493Z,6.30
2018-07-28T16:28:03.023Z,6.50
2018-07-28T16:32:55.568Z,6.60
2018-07-28T16:37:48.118Z,6.53
2018-07-28T16:42:40.753Z,6.17
2018-07-28T16:47:33.310Z,5.93
2018-07-28T16:52:25.853Z,6.40
2018-07-28T16:57:18.444Z,6.53
2018-07-28T17:02:11.135Z,7.00
2018-07-28T17:07:03.797Z,6.37
2018-07-28T17:11:56.420Z,6.73
2018-07-28T17:16:48.961Z,7.03
2018-07-28T17:21:41.529Z,7.07
2018-07-28T17:26:34.152Z,7.27
2018-07-28T17:31:26.728Z,6.70
2018-07-28T17:36:19.327Z,6.30
2018-07-28T17:41:11.958Z,6.67
2018-07-28T17:46:04.687Z,6.73
2018-07-28T17:50:57.295Z,6.03
2018-07-28T17:55:49.954Z,5.87
2018-07-28T18:00:42.535Z,5.73
2018-07-28T18:05:35.125Z,5.30
2018-07-28T18:10:27.684Z,5.80
2018-07-28T18:15:20.216Z,7.60
2018-07-28T18:20:12.744Z,7.43
2018-07-28T18:25:05.290Z,7.00
2018-07-28T18:29:57.850Z,7.10
2018-07-28T18:34:50.983Z,7.27
2018-07-28T18:39:43.588Z,6.83
2018-07-28T18:44:36.318Z,7.03
2018-07-28T18:49:28.986Z,7.10
2018-07-28T18:54:21.564Z,7.17
2018-07-28T18:59:14.118Z,8.00
2018-07-28T19:04:06.765Z,7.40
2018-07-28T19:09:05.084Z,7.70
2018-07-28T19:14:03.373Z,7.20
2018-07-28T19:19:01.648Z,7.80
2018-07-28T19:24:01.555Z,7.80
2018-07-28T19:28:59.968Z,8.20
2018-07-28T19:33:52.605Z,8.40
2018-07-28T19:38:45.318Z,7.93
2018-07-28T19:43:37.890Z,9.23
2018-07-28T19:48:30.549Z,8.63
2018-07-28T19:53:23.124Z,8.07
2018-07-28T19:58:15.798Z,8.77
2018-07-28T20:03:08.412Z,8.07
2018-07-28T20:08:00.973Z,9.23
2018-07-28T20:12:53.573Z,9.20
2018-07-28T20:17:46.242Z,9.73
2018-07-28T20:22:38.821Z,9.47
2018-07-28T20:27:31.416Z,9.87
2018-07-28T20:32:24.049Z,11.20
2018-07-28T20:37:16.619Z,9.53
2018-07-28T20:42:09.283Z,10.00
2018-07-28T20:47:01.872Z,10.87
2018-07-28T20:51:54.472Z,11.57
2018-07-28T20:56:47.065Z,11.13
2018-07-28T21:01:39.729Z,11.93
2018-07-28T21:06:32.298Z,15.50
2018-07-28T21:11:24.834Z,12.13
2018-07-28T21:16:17.526Z,11.60
2018-07-28T21:21:10.085Z,12.13
2018-07-28T21:26:02.631Z,11.37
2018-07-28T21:30:55.196Z,12.67
2018-07-28T21:35:47.774Z,12.73
2018-07-28T21:40:40.394Z,13.23
2018-07-28T21:45:32.943Z,13.80
2018-07-28T21:50:25.511Z,13.30
2018-07-28T21:55:18.067Z,13.87
2018-07-28T22:00:10.921Z,14.03
2018-07-28T22:05:03.639Z,12.87
2018-07-28T22:09:56.170Z,12.60
2018-07-28T22:14:48.923Z,13.20
2018-07-28T22:19:41.445Z,10.93
2018-07-28T22:24:34.001Z,10.67
2018-07-28T22:29:26.584Z,11.27
2018-07-28T22:34:19.193Z,10.80
2018-07-28T22:39:11.981Z,11.30
2018-07-28T22:44:04.607Z,10.80
2018-07-28T22:48:57.195Z,10.27
2018-07-28T22:53:49.778Z,10.57
2018-07-28T22:58:42.330Z,11.00
2018-07-28T23:03:34.907Z,11.43
2018-07-28T23:08:27.513Z,11.27
2018-07-28T23:13:20.082Z,10.67
2018-07-28T23:18:12.617Z,10.57
2018-07-28T23:23:05.207Z,9.60
2018-07-28T23:27:57.793Z,10.03
2018-07-28T23:32:50.306Z,11.10
2018-07-28T23:37:42.875Z,11.60
2018-07-28T23:42:35.475Z,11.90
2018-07-28T23:47:28.029Z,13.90
2018-07-28T23:52:20.659Z,13.30
2018-07-28T23:57:13.277Z,13.97
